Azamara Journey — 9HOB8 — position and weather

sailwx.info

Track history (hours):
 
Tides and Currents Weather Stations Pressure Air Temp Water Temp Dewpoint Dewpoint Depression Visibility Wind Speed Wind Dir Waves Ship Positions

Azamara Journey

Last reported at 2018-May-26 13:08 UTC. Time now 2018-May-27 08:13 UTC.
Position N 43°44' E 007°26'.

Type: Ship. MMSI: 256204000.

Date/timePositionNaut miles runAvg speedWind from/ knotsBaromVisibWave heightAir tempDewpointWater temp
2018-May-26 13:08N 43°44' E 007°26'0 0.1
2018-May-26 12:59N 43°44' E 007°26'0 0.0
2018-May-26 12:17N 43°44' E 007°26'0 0.1
2018-May-26 11:59N 43°44' E 007°26'0 0.0
2018-May-26 11:20N 43°44' E 007°26'0 0.1
2018-May-26 10:50N 43°44' E 007°26'0 0.1
2018-May-26 09:38N 43°44' E 007°26'0 0.1
2018-May-26 09:08N 43°44' E 007°26'0 0.1
2018-May-26 08:56N 43°44' E 007°26'0 0.0
2018-May-26 06:08N 43°44' E 007°26'0 0.1
2018-May-26 05:12N 43°44' E 007°26'2 8.0
2018-May-26 05:00N 43°42' E 007°27'5 9.7
2018-May-26 04:30N 43°38' E 007°30'5 9.3
2018-May-26 04:00N 43°34' E 007°33'5 9.1
2018-May-26 03:30N 43°30' E 007°36'4 8.9
2018-May-26 03:00N 43°26' E 007°39'4 8.7
2018-May-26 02:30N 43°22' E 007°40'5 8.8
2018-May-26 01:59N 43°18' E 007°43'4 8.8
2018-May-26 01:30N 43°14' E 007°46'4 8.7
2018-May-26 01:00N 43°10' E 007°48'5 8.8
2018-May-26 00:29N 43°06' E 007°52'4 9.1
2018-May-26 00:00N 43°02' E 007°55'4 8.9
2018-May-25 23:30N 42°58' E 007°55'5 9.0
2018-May-25 23:00N 42°53' E 007°55'5 9.7
2018-May-25 22:30N 42°49' E 007°58'5 9.7
2018-May-25 21:58N 42°44' E 008°00'4 9.7
2018-May-25 21:30N 42°40' E 008°03'5 9.7
2018-May-25 21:00N 42°35' E 008°06'5 9.9
2018-May-25 20:30N 42°31' E 008°08'714.8
2018-May-25 20:00N 42°24' E 008°12'816.4
2018-May-25 19:30N 42°17' E 008°16'14 1.1
2018-May-25 07:12N 42°03' E 008°20'315.4
2018-May-25 07:00N 42°05' E 008°17'1614.1
2018-May-25 05:53N 42°18' E 008°06'5 8.7
2018-May-25 05:19N 42°23' E 008°02'3 8.7
2018-May-25 05:00N 42°25' E 007°60'4 8.8
2018-May-25 04:30N 42°28' E 007°56'42 8.7
2018-May-24 23:37N 43°03' E 007°22'2 8.8
2018-May-24 23:24N 43°04' E 007°21'8 9.0
2018-May-24 22:28N 43°11' E 007°14'711.1
2018-May-24 21:48N 43°18' E 007°11'415.0
2018-May-24 21:31N 43°22' E 007°08'815.0
2018-May-24 21:00N 43°28' E 007°02'4 8.7
2018-May-24 20:30N 43°32' E 007°01'0 0.1
2018-May-24 19:57N 43°32' E 007°01'0 0.0
2018-May-24 19:27N 43°32' E 007°01'0 0.0
2018-May-24 18:57N 43°32' E 007°01'0 0.0
2018-May-24 18:30N 43°32' E 007°01'0 0.0
2018-May-24 18:00N 43°32' E 007°01'0 0.0
2018-May-24 17:30N 43°32' E 007°01'0 0.0
2018-May-24 17:00N 43°32' E 007°01'0 0.0
2018-May-24 16:30N 43°32' E 007°01'0 0.0
2018-May-24 16:00N 43°32' E 007°01'0 0.0
2018-May-24 15:30N 43°32' E 007°01'0 0.0
2018-May-24 15:00N 43°32' E 007°01'0 0.0
2018-May-24 14:30N 43°32' E 007°01'0 0.1
2018-May-24 14:00N 43°32' E 007°01'0 0.0
2018-May-24 13:30N 43°32' E 007°01'0 0.0
2018-May-24 09:00N 43°32' E 007°01'0 0.0
2018-May-24 08:24N 43°32' E 007°01'0 0.0
2018-May-24 07:39N 43°32' E 007°01'0 0.1
2018-May-24 07:30N 43°32' E 007°01'0 0.0
2018-May-24 07:00N 43°32' E 007°01'0 0.0
2018-May-24 06:27N 43°32' E 007°01'0 0.0
2018-May-24 06:00N 43°32' E 007°01'0 0.0
2018-May-24 05:27N 43°32' E 007°01'0 0.0
2018-May-24 05:00N 43°32' E 007°01'0 0.0
2018-May-24 04:27N 43°32' E 007°01'0 0.0
2018-May-24 04:00N 43°32' E 007°01'0 0.0
2018-May-24 03:30N 43°32' E 007°01'0 0.0
2018-May-24 03:00N 43°32' E 007°01'0 0.0
2018-May-24 02:30N 43°32' E 007°01'0 0.0
2018-May-24 02:00N 43°32' E 007°01'0 0.0
2018-May-24 01:30N 43°32' E 007°01'0 0.0
2018-May-24 01:00N 43°32' E 007°01'0 0.0
2018-May-24 00:30N 43°32' E 007°01'0 0.0
2018-May-24 00:00N 43°32' E 007°01'0 0.0
2018-May-23 23:30N 43°32' E 007°01'0 0.0
2018-May-23 23:00N 43°32' E 007°01'0 0.0
2018-May-23 22:30N 43°32' E 007°01'0 0.0
2018-May-23 22:00N 43°32' E 007°01'0 0.0
2018-May-23 21:30N 43°32' E 007°01'0 0.0
2018-May-23 21:00N 43°32' E 007°01'0 0.1
2018-May-23 20:21N 43°32' E 007°01'0 0.1
2018-May-23 19:54N 43°32' E 007°01'0 0.0
2018-May-23 19:27N 43°32' E 007°01'0 0.0
2018-May-23 18:54N 43°32' E 007°01'0 0.0
2018-May-23 18:27N 43°32' E 007°01'0 0.0
2018-May-23 17:54N 43°32' E 007°01'0 0.1
2018-May-23 17:27N 43°32' E 007°01'0 0.0
2018-May-23 16:57N 43°32' E 007°01'0 0.1
2018-May-23 16:30N 43°32' E 007°01'0 0.0
2018-May-23 15:57N 43°32' E 007°01'0 0.0
2018-May-23 15:24N 43°32' E 007°01'0 0.0
2018-May-23 14:54N 43°32' E 007°01'0 0.1
2018-May-23 14:27N 43°32' E 007°01'0 0.0
2018-May-23 14:00N 43°32' E 007°01'0 0.0
2018-May-23 13:30N 43°32' E 007°01'0 0.0
2018-May-23 13:00N 43°32' E 007°01'0 0.0
2018-May-23 12:30N 43°32' E 007°01'0 0.0
2018-May-23 12:00N 43°32' E 007°01'0 0.0
2018-May-23 11:30N 43°32' E 007°01'0 0.0
2018-May-23 11:00N 43°32' E 007°01'0 0.0
2018-May-23 10:30N 43°32' E 007°01'0 0.0
2018-May-23 10:00N 43°32' E 007°01'0 0.1
2018-May-23 09:30N 43°32' E 007°01'3 6.8
2018-May-23 09:01N 43°29' E 007°02'510.1
2018-May-23 08:31N 43°28' E 007°09'510.0
2018-May-23 08:00N 43°28' E 007°16'3412.4
2018-May-23 05:15N 43°28' E 008°03'312.3
2018-May-23 05:00N 43°28' E 008°07'612.3
2018-May-23 04:31N 43°28' E 008°16'612.4
2018-May-23 04:00N 43°28' E 008°24'612.6
2018-May-23 03:29N 43°28' E 008°33'612.5
2018-May-23 03:01N 43°28' E 008°42'612.4
2018-May-23 02:30N 43°28' E 008°50'612.4
2018-May-23 02:00N 43°28' E 008°59'612.3
2018-May-23 01:31N 43°27' E 009°07'612.4
2018-May-23 01:00N 43°27' E 009°16'612.7
2018-May-23 00:30N 43°27' E 009°24'612.5
2018-May-23 00:00N 43°28' E 009°33'612.6
2018-May-22 23:30N 43°29' E 009°42'612.6
2018-May-22 23:00N 43°31' E 009°50'612.1
2018-May-22 22:30N 43°30' E 009°58'612.5
2018-May-22 22:01N 43°30' E 010°07'612.5
2018-May-22 21:30N 43°32' E 010°15'2 4.1
2018-May-22 20:58N 43°33' E 010°18'0 0.0
2018-May-22 20:28N 43°33' E 010°18'0 0.0
2018-May-22 19:58N 43°33' E 010°18'0 0.0
2018-May-22 19:25N 43°33' E 010°18'0 0.0
2018-May-22 18:58N 43°33' E 010°18'0 0.0
2018-May-22 18:28N 43°33' E 010°18'0 0.0
2018-May-22 17:58N 43°33' E 010°18'0 0.0
2018-May-22 17:28N 43°33' E 010°18'0 0.0
2018-May-22 16:58N 43°33' E 010°18'0 0.0
2018-May-22 16:28N 43°33' E 010°18'0 0.0
2018-May-22 15:58N 43°33' E 010°18'0 0.0
2018-May-22 15:28N 43°33' E 010°18'0 0.0
2018-May-22 14:58N 43°33' E 010°18'0 0.0
2018-May-22 14:28N 43°33' E 010°18'0 0.0
2018-May-22 13:58N 43°33' E 010°18'0 0.0
2018-May-22 13:28N 43°33' E 010°18'0 0.0
2018-May-22 12:58N 43°33' E 010°18'0 0.0
2018-May-22 12:28N 43°33' E 010°18'0 0.0
2018-May-22 11:52N 43°33' E 010°18'0 0.0
2018-May-22 11:28N 43°33' E 010°18'0 0.0
2018-May-22 10:52N 43°33' E 010°18'0 0.0
2018-May-22 10:28N 43°33' E 010°18'0 0.0
2018-May-22 09:58N 43°33' E 010°18'0 0.0
2018-May-22 09:28N 43°33' E 010°18'0 0.0
2018-May-22 08:58N 43°33' E 010°18'0 0.0
2018-May-22 08:28N 43°33' E 010°18'0 0.0
2018-May-22 07:52N 43°33' E 010°18'0 0.0
2018-May-22 07:28N 43°33' E 010°18'0 0.0
2018-May-22 06:58N 43°33' E 010°18'0 0.0
2018-May-22 06:28N 43°33' E 010°18'0 0.0
2018-May-22 05:58N 43°33' E 010°18'0 0.0
2018-May-22 05:30N 43°33' E 010°18'3 6.5
2018-May-22 05:00N 43°30' E 010°15'612.1
2018-May-22 04:30N 43°24' E 010°14'612.9
2018-May-22 04:00N 43°18' E 010°16'612.8
2018-May-22 03:30N 43°12' E 010°19'611.8
2018-May-22 03:00N 43°06' E 010°18'178 5.8 210 / 61011.8 5.4 17.017.020.0
2018-May-20 20:15N 41°01' E 013°08'515.3
2018-May-20 19:53N 40°58' E 013°14'615.2
2018-May-20 19:31N 40°55' E 013°21'815.3
2018-May-20 19:01N 40°52' E 013°29'815.2
2018-May-20 18:30N 40°48' E 013°38'815.2
2018-May-20 18:01N 40°43' E 013°45'714.9
2018-May-20 17:30N 40°38' E 013°53'714.5
2018-May-20 17:00N 40°35' E 014°02'715.0
2018-May-20 16:30N 40°32' E 014°10'714.7
2018-May-20 16:00N 40°32' E 014°20'815.1
2018-May-20 15:31N 40°34' E 014°30'6 0.6
2018-May-20 05:03N 40°36' E 014°37'313.2
2018-May-20 04:50N 40°33' E 014°38'11213.5
2018-May-19 20:31N 38°45' E 015°13'412.7
2018-May-19 20:13N 38°42' E 015°16'312.1
2018-May-19 20:00N 38°40' E 015°19'611.9
2018-May-19 19:30N 38°36' E 015°24'611.8
2018-May-19 18:58N 38°31' E 015°29'511.4
2018-May-19 18:30N 38°27' E 015°34'611.7
2018-May-19 18:00N 38°23' E 015°39'3 5.9
2018-May-19 17:30N 38°20' E 015°40'610.0
2018-May-19 16:55N 38°14' E 015°38'715.8
2018-May-19 16:30N 38°08' E 015°36'26 2.1
2018-May-19 04:00N 37°42' E 015°36'1120.2 020 / 141011.810.8 18.018.020.0
2018-May-19 03:26N 37°43' E 015°50'612.8
2018-May-19 02:59N 37°41' E 015°57'  
Track history (hours):
 
Tides and Currents Weather Stations Pressure Air Temp Water Temp Dewpoint Dewpoint Depression Visibility Wind Speed Wind Dir Waves Ship Positions

Azamara Journey

Last reported at 2018-May-26 13:08 UTC. Time now 2018-May-27 08:13 UTC.
Position N 43°44' E 007°26'.

Type: Ship. MMSI: 256204000.

Date/timePositionNaut miles runAvg speedWind from/ knotsBaromVisibWave heightAir tempDewpointWater temp
2018-May-26 13:08N 43°44' E 007°26'0 0.1
2018-May-26 12:59N 43°44' E 007°26'0 0.0
2018-May-26 12:17N 43°44' E 007°26'0 0.1
2018-May-26 11:59N 43°44' E 007°26'0 0.0
2018-May-26 11:20N 43°44' E 007°26'0 0.1
2018-May-26 10:50N 43°44' E 007°26'0 0.1
2018-May-26 09:38N 43°44' E 007°26'0 0.1
2018-May-26 09:08N 43°44' E 007°26'0 0.1
2018-May-26 08:56N 43°44' E 007°26'0 0.0
2018-May-26 06:08N 43°44' E 007°26'0 0.1
2018-May-26 05:12N 43°44' E 007°26'2 8.0
2018-May-26 05:00N 43°42' E 007°27'5 9.7
2018-May-26 04:30N 43°38' E 007°30'5 9.3
2018-May-26 04:00N 43°34' E 007°33'5 9.1
2018-May-26 03:30N 43°30' E 007°36'4 8.9
2018-May-26 03:00N 43°26' E 007°39'4 8.7
2018-May-26 02:30N 43°22' E 007°40'5 8.8
2018-May-26 01:59N 43°18' E 007°43'4 8.8
2018-May-26 01:30N 43°14' E 007°46'4 8.7
2018-May-26 01:00N 43°10' E 007°48'5 8.8
2018-May-26 00:29N 43°06' E 007°52'4 9.1
2018-May-26 00:00N 43°02' E 007°55'4 8.9
2018-May-25 23:30N 42°58' E 007°55'5 9.0
2018-May-25 23:00N 42°53' E 007°55'5 9.7
2018-May-25 22:30N 42°49' E 007°58'5 9.7
2018-May-25 21:58N 42°44' E 008°00'4 9.7
2018-May-25 21:30N 42°40' E 008°03'5 9.7
2018-May-25 21:00N 42°35' E 008°06'5 9.9
2018-May-25 20:30N 42°31' E 008°08'714.8
2018-May-25 20:00N 42°24' E 008°12'816.4
2018-May-25 19:30N 42°17' E 008°16'14 1.1
2018-May-25 07:12N 42°03' E 008°20'315.4
2018-May-25 07:00N 42°05' E 008°17'1614.1
2018-May-25 05:53N 42°18' E 008°06'5 8.7
2018-May-25 05:19N 42°23' E 008°02'3 8.7
2018-May-25 05:00N 42°25' E 007°60'4 8.8
2018-May-25 04:30N 42°28' E 007°56'42 8.7
2018-May-24 23:37N 43°03' E 007°22'2 8.8
2018-May-24 23:24N 43°04' E 007°21'8 9.0
2018-May-24 22:28N 43°11' E 007°14'711.1
2018-May-24 21:48N 43°18' E 007°11'415.0
2018-May-24 21:31N 43°22' E 007°08'815.0
2018-May-24 21:00N 43°28' E 007°02'4 8.7
2018-May-24 20:30N 43°32' E 007°01'0 0.1
2018-May-24 19:57N 43°32' E 007°01'0 0.0
2018-May-24 19:27N 43°32' E 007°01'0 0.0
2018-May-24 18:57N 43°32' E 007°01'0 0.0
2018-May-24 18:30N 43°32' E 007°01'0 0.0
2018-May-24 18:00N 43°32' E 007°01'0 0.0
2018-May-24 17:30N 43°32' E 007°01'0 0.0
2018-May-24 17:00N 43°32' E 007°01'0 0.0
2018-May-24 16:30N 43°32' E 007°01'0 0.0
2018-May-24 16:00N 43°32' E 007°01'0 0.0
2018-May-24 15:30N 43°32' E 007°01'0 0.0
2018-May-24 15:00N 43°32' E 007°01'0 0.0
2018-May-24 14:30N 43°32' E 007°01'0 0.1
2018-May-24 14:00N 43°32' E 007°01'0 0.0
2018-May-24 13:30N 43°32' E 007°01'0 0.0
2018-May-24 09:00N 43°32' E 007°01'0 0.0
2018-May-24 08:24N 43°32' E 007°01'0 0.0
2018-May-24 07:39N 43°32' E 007°01'0 0.1
2018-May-24 07:30N 43°32' E 007°01'0 0.0
2018-May-24 07:00N 43°32' E 007°01'0 0.0
2018-May-24 06:27N 43°32' E 007°01'0 0.0
2018-May-24 06:00N 43°32' E 007°01'0 0.0
2018-May-24 05:27N 43°32' E 007°01'0 0.0
2018-May-24 05:00N 43°32' E 007°01'0 0.0
2018-May-24 04:27N 43°32' E 007°01'0 0.0
2018-May-24 04:00N 43°32' E 007°01'0 0.0
2018-May-24 03:30N 43°32' E 007°01'0 0.0
2018-May-24 03:00N 43°32' E 007°01'0 0.0
2018-May-24 02:30N 43°32' E 007°01'0 0.0
2018-May-24 02:00N 43°32' E 007°01'0 0.0
2018-May-24 01:30N 43°32' E 007°01'0 0.0
2018-May-24 01:00N 43°32' E 007°01'0 0.0
2018-May-24 00:30N 43°32' E 007°01'0 0.0
2018-May-24 00:00N 43°32' E 007°01'0 0.0
2018-May-23 23:30N 43°32' E 007°01'0 0.0
2018-May-23 23:00N 43°32' E 007°01'0 0.0
2018-May-23 22:30N 43°32' E 007°01'0 0.0
2018-May-23 22:00N 43°32' E 007°01'0 0.0
2018-May-23 21:30N 43°32' E 007°01'0 0.0
2018-May-23 21:00N 43°32' E 007°01'0 0.1
2018-May-23 20:21N 43°32' E 007°01'0 0.1
2018-May-23 19:54N 43°32' E 007°01'0 0.0
2018-May-23 19:27N 43°32' E 007°01'0 0.0
2018-May-23 18:54N 43°32' E 007°01'0 0.0
2018-May-23 18:27N 43°32' E 007°01'0 0.0
2018-May-23 17:54N 43°32' E 007°01'0 0.1
2018-May-23 17:27N 43°32' E 007°01'0 0.0
2018-May-23 16:57N 43°32' E 007°01'0 0.1
2018-May-23 16:30N 43°32' E 007°01'0 0.0
2018-May-23 15:57N 43°32' E 007°01'0 0.0
2018-May-23 15:24N 43°32' E 007°01'0 0.0
2018-May-23 14:54N 43°32' E 007°01'0 0.1
2018-May-23 14:27N 43°32' E 007°01'0 0.0
2018-May-23 14:00N 43°32' E 007°01'0 0.0
2018-May-23 13:30N 43°32' E 007°01'0 0.0
2018-May-23 13:00N 43°32' E 007°01'0 0.0
2018-May-23 12:30N 43°32' E 007°01'0 0.0
2018-May-23 12:00N 43°32' E 007°01'0 0.0
2018-May-23 11:30N 43°32' E 007°01'0 0.0
2018-May-23 11:00N 43°32' E 007°01'0 0.0
2018-May-23 10:30N 43°32' E 007°01'0 0.0
2018-May-23 10:00N 43°32' E 007°01'0 0.1
2018-May-23 09:30N 43°32' E 007°01'3 6.8
2018-May-23 09:01N 43°29' E 007°02'510.1
2018-May-23 08:31N 43°28' E 007°09'510.0
2018-May-23 08:00N 43°28' E 007°16'3412.4
2018-May-23 05:15N 43°28' E 008°03'312.3
2018-May-23 05:00N 43°28' E 008°07'612.3
2018-May-23 04:31N 43°28' E 008°16'612.4
2018-May-23 04:00N 43°28' E 008°24'612.6
2018-May-23 03:29N 43°28' E 008°33'612.5
2018-May-23 03:01N 43°28' E 008°42'612.4
2018-May-23 02:30N 43°28' E 008°50'612.4
2018-May-23 02:00N 43°28' E 008°59'612.3
2018-May-23 01:31N 43°27' E 009°07'612.4
2018-May-23 01:00N 43°27' E 009°16'612.7
2018-May-23 00:30N 43°27' E 009°24'612.5
2018-May-23 00:00N 43°28' E 009°33'612.6
2018-May-22 23:30N 43°29' E 009°42'612.6
2018-May-22 23:00N 43°31' E 009°50'612.1
2018-May-22 22:30N 43°30' E 009°58'612.5
2018-May-22 22:01N 43°30' E 010°07'612.5
2018-May-22 21:30N 43°32' E 010°15'2 4.1
2018-May-22 20:58N 43°33' E 010°18'0 0.0
2018-May-22 20:28N 43°33' E 010°18'0 0.0
2018-May-22 19:58N 43°33' E 010°18'0 0.0
2018-May-22 19:25N 43°33' E 010°18'0 0.0
2018-May-22 18:58N 43°33' E 010°18'0 0.0
2018-May-22 18:28N 43°33' E 010°18'0 0.0
2018-May-22 17:58N 43°33' E 010°18'0 0.0
2018-May-22 17:28N 43°33' E 010°18'0 0.0
2018-May-22 16:58N 43°33' E 010°18'0 0.0
2018-May-22 16:28N 43°33' E 010°18'0 0.0
2018-May-22 15:58N 43°33' E 010°18'0 0.0
2018-May-22 15:28N 43°33' E 010°18'0 0.0
2018-May-22 14:58N 43°33' E 010°18'0 0.0
2018-May-22 14:28N 43°33' E 010°18'0 0.0
2018-May-22 13:58N 43°33' E 010°18'0 0.0
2018-May-22 13:28N 43°33' E 010°18'0 0.0
2018-May-22 12:58N 43°33' E 010°18'0 0.0
2018-May-22 12:28N 43°33' E 010°18'0 0.0
2018-May-22 11:52N 43°33' E 010°18'0 0.0
2018-May-22 11:28N 43°33' E 010°18'0 0.0
2018-May-22 10:52N 43°33' E 010°18'0 0.0
2018-May-22 10:28N 43°33' E 010°18'0 0.0
2018-May-22 09:58N 43°33' E 010°18'0 0.0
2018-May-22 09:28N 43°33' E 010°18'0 0.0
2018-May-22 08:58N 43°33' E 010°18'0 0.0
2018-May-22 08:28N 43°33' E 010°18'0 0.0
2018-May-22 07:52N 43°33' E 010°18'0 0.0
2018-May-22 07:28N 43°33' E 010°18'0 0.0
2018-May-22 06:58N 43°33' E 010°18'0 0.0
2018-May-22 06:28N 43°33' E 010°18'0 0.0
2018-May-22 05:58N 43°33' E 010°18'0 0.0
2018-May-22 05:30N 43°33' E 010°18'3 6.5
2018-May-22 05:00N 43°30' E 010°15'612.1
2018-May-22 04:30N 43°24' E 010°14'612.9
2018-May-22 04:00N 43°18' E 010°16'612.8
2018-May-22 03:30N 43°12' E 010°19'611.8
2018-May-22 03:00N 43°06' E 010°18'178 5.8 210 / 61011.8 5.4 17.017.020.0
2018-May-20 20:15N 41°01' E 013°08'515.3
2018-May-20 19:53N 40°58' E 013°14'615.2
2018-May-20 19:31N 40°55' E 013°21'815.3
2018-May-20 19:01N 40°52' E 013°29'815.2
2018-May-20 18:30N 40°48' E 013°38'815.2
2018-May-20 18:01N 40°43' E 013°45'714.9
2018-May-20 17:30N 40°38' E 013°53'714.5
2018-May-20 17:00N 40°35' E 014°02'715.0
2018-May-20 16:30N 40°32' E 014°10'714.7
2018-May-20 16:00N 40°32' E 014°20'815.1
2018-May-20 15:31N 40°34' E 014°30'6 0.6
2018-May-20 05:03N 40°36' E 014°37'313.2
2018-May-20 04:50N 40°33' E 014°38'11213.5
2018-May-19 20:31N 38°45' E 015°13'412.7
2018-May-19 20:13N 38°42' E 015°16'312.1
2018-May-19 20:00N 38°40' E 015°19'611.9
2018-May-19 19:30N 38°36' E 015°24'611.8
2018-May-19 18:58N 38°31' E 015°29'511.4
2018-May-19 18:30N 38°27' E 015°34'611.7
2018-May-19 18:00N 38°23' E 015°39'3 5.9
2018-May-19 17:30N 38°20' E 015°40'610.0
2018-May-19 16:55N 38°14' E 015°38'715.8
2018-May-19 16:30N 38°08' E 015°36'26 2.1
2018-May-19 04:00N 37°42' E 015°36'1120.2 020 / 141011.810.8 18.018.020.0
2018-May-19 03:26N 37°43' E 015°50'612.8
2018-May-19 02:59N 37°41' E 015°57'  

Dump ship's entire track history